Terminal Aerodrome Forecast
Issued by NWS Bismarck, ND

Home | Current Version | Previous Version | Graphics & Text | Print | Product List | Glossary On
Versions: 1 2 3 4 5 6 7 8 9 10 11 12 13 14 15 16 17 18 19 20 21
000
FTUS43 KBIS 262019 AAA
TAFISN
TAF AMD
KISN 262019Z 2620/2718 32008KT P6SM -SHRA VCTS SCT030 BKN040CB
     FM262300 35009KT P6SM VCTS BKN050CB
     FM270300 02006KT P6SM BKN110
     FM270900 35004KT P6SM OVC020
     FM271300 35004KT P6SM BKN035=

USA.gov is the U.S. government's official web portal to all federal, state and local government web resources and services.